• Join FlightAware (Why Join?)
  • Login
  • US Flag 
03:02PM EDT


 

Airport Tracker/Info


-or-


 

Live Flight TrackerFlight Track Log ✈ N244A ✈ 01-Nov-2013 ✈ KTPA - KAVL

Flight Track Log - Related Links

Times and Time Zones

All times are in EDT time to prevent confusion due to time zone crossing. See the N244A flight status page for this flight to view local times or setup timezone preferences in your user account.

Time Position Orientation Groundspeed Altitude Reporting Facility
EDT Latitude Longitude Course Direction KTS MPH feet Rate Location/Type
10:49AM 27.9667 -82.5333 204° Southwest 164 189 700  Level Tampa TRACON
10:51AM 27.8667 -82.5833 204° Southwest 293 337 4,700 3,000 Climbing Tampa TRACON
10:52AM 27.8833 -82.6667 283° West 304 350 8,200 2,580 Climbing Tampa TRACON
10:54AM 28.0475 -82.6575 North 335 386 11,900 2,820 Climbing Jacksonville Center
10:56AM 28.2478 -82.6381 North 362 417 18,900 3,000 Climbing Jacksonville Center
10:57AM 28.3436 -82.6236 North 349 402 21,000 1,800 Climbing Jacksonville Center
10:58AM 28.4439 -82.6117 North 349 402 22,600 1,680 Climbing Jacksonville Center
10:59AM 28.5481 -82.6019 North 359 413 24,400 1,800 Climbing Jacksonville Center
11:00AM 28.6567 -82.5875 North 369 425 26,200 1,440 Climbing Jacksonville Center
11:01AM 28.7653 -82.5869 360° North 380 437 27,300 1,140 Climbing Jacksonville Center
11:02AM 28.8822 -82.5961 356° North 395 455 28,500 1,380 Climbing Jacksonville Center
11:03AM 28.9989 -82.6031 357° North 410 472 30,100 1,800 Climbing Jacksonville Center
11:04AM 29.1139 -82.6050 359° North 415 478 32,200 1,800 Climbing Jacksonville Center
11:05AM 29.2267 -82.6094 358° North 410 472 33,800 1,200 Climbing Jacksonville Center
11:06AM 29.3350 -82.6139 358° North 399 459 34,700 660 Climbing Jacksonville Center
11:07AM 29.4519 -82.6183 358° North 406 467 35,200 780 Climbing Jacksonville Center
11:08AM 29.5711 -82.6133 North 417 480 36,300 900 Climbing Jacksonville Center
11:09AM 29.6919 -82.6128 360° North 417 480 37,000 300 Climbing Jacksonville Center
11:10AM 29.8131 -82.6150 359° North 428 493 37,000  Level Jacksonville Center
11:11AM 29.9281 -82.6097 North 444 511 37,000  Level Jacksonville Center
11:12AM 30.0553 -82.6167 357° North 444 511 37,000 -60 Level Jacksonville Center
11:13AM 30.1828 -82.6233 357° North 450 518 36,900  Descending Jacksonville Center
11:14AM 30.3142 -82.6256 359° North 461 531 37,000  Climbing Jacksonville Center
11:15AM 30.4458 -82.6228 North 466 536 37,000  Level Jacksonville Center
11:16AM 30.5794 -82.6247 359° North 466 536 37,000  Level Jacksonville Center
11:17AM 30.7111 -82.6292 358° North 466 536 37,000  Level Jacksonville Center
11:18AM 30.8467 -82.6289 360° North 476 548 37,000  Level Jacksonville Center
11:19AM 30.9803 -82.6236 North 476 548 37,000 -60 Level Jacksonville Center
11:20AM 31.1161 -82.6233 360° North 476 548 36,900  Descending Jacksonville Center
11:21AM 31.2497 -82.6278 358° North 476 548 37,000  Climbing Jacksonville Center
11:22AM 31.3958 -82.6272 360° North 476 548 37,000  Level Jacksonville Center
11:24AM 31.6883 -82.6208 North 489 563 37,000  Level Atlanta Center
11:25AM 31.8239 -82.6186 North 484 557 37,000  Level Atlanta Center
11:26AM 31.9639 -82.6167 North 484 557 37,000  Level Atlanta Center
11:27AM 32.0994 -82.6144 North 484 557 37,000  Level Atlanta Center
11:28AM 32.2350 -82.6097 North 484 557 37,000 -180 Level Atlanta Center
11:29AM 32.3667 -82.6078 North 478 550 36,700 -600 Descending Atlanta Center
11:30AM 32.5042 -82.6078 360° North 478 550 35,800 -1,140 Descending Atlanta Center
11:31AM 32.6461 -82.6056 North 489 563 34,500 -1,380 Descending Atlanta Center
11:32AM 32.7881 -82.5983 North 501 577 33,100 -1,080 Descending Atlanta Center
11:33AM 32.9278 -82.5983 360° North 501 577 32,400 -600 Descending Atlanta Center
11:34AM 33.0678 -82.5936 North 501 577 32,000 -240 Descending Atlanta Center
11:35AM 33.2075 -82.5939 360° North 495 570 32,000  Level Atlanta Center
11:36AM 33.3703 -82.5886 North 507 583 32,000  Level Atlanta Center
11:37AM 33.5122 -82.5864 North 518 596 32,000 -900 Level Atlanta Center
11:38AM 33.6561 -82.5814 North 518 596 30,200 -1,920 Descending Atlanta Center
11:39AM 33.8003 -82.5789 North 514 592 28,200 -2,100 Descending Atlanta Center
11:40AM 33.9336 -82.5742 North 493 567 26,100 -2,160 Descending Atlanta Center
11:41AM 34.0672 -82.5717 North 484 557 23,900 -1,980 Descending Atlanta Center
11:42AM 34.1903 -82.5722 360° North 478 550 22,200 -2,040 Descending Atlanta Center
11:43AM 34.3219 -82.5700 North 473 544 19,900 -2,400 Descending Atlanta Center
11:44AM 34.4511 -82.5650 North 468 539 17,500 -2,400 Descending Atlanta Center
11:45AM 34.5742 -82.5631 North 454 522 15,200 -2,340 Descending Atlanta Center
11:46AM 34.6911 -82.5583 North 431 496 12,900 -2,100 Descending Atlanta Center
11:47AM 34.8039 -82.5589 360° North 412 474 11,000 -1,500 Descending Atlanta Center
11:48AM 34.8936 -82.5600 359° North 368 423 10,000 -1,620 Descending Atlanta Center
11:49AM 34.9769 -82.5558 North 321 369 7,800 -2,040 Descending Atlanta Center
11:50AM 35.0561 -82.5519 North 292 336 6,000 -900 Descending Atlanta Center
11:51AM 35.1225 -82.5203 21° North 263 303 6,000 -420 Level Atlanta Center
11:52AM 35.1889 -82.4936 18° North 246 283 5,200 -420 Descending Atlanta Center
11:54AM 35.3119 -82.4861 North 448 516 4,900 -240 Descending Atlanta Center
11:55AM 35.4131 -82.5456 334° Northwest 416 479 4,500 -420 Descending Atlanta Center
11:57AM 35.4333 -82.5333 North  Level FlightAware Approximate
12:04PM 35.4362 -82.5418 North  Level Estimated